sensor_id;sensor_type;location;lat;lon;timestamp;pressure;altitude;pressure_sealevel;temperature;humidity
20156;BME280;10238;49.556;10.956;2023-03-04T00:00:14;98804.16;;;-0.83;100.00
20156;BME280;10238;49.556;10.956;2023-03-04T00:03:02;98807.84;;;-0.87;100.00
20156;BME280;10238;49.556;10.956;2023-03-04T00:05:50;98811.38;;;-0.88;100.00
20156;BME280;10238;49.556;10.956;2023-03-04T00:08:39;98812.44;;;-0.92;100.00
20156;BME280;10238;49.556;10.956;2023-03-04T00:11:27;98813.56;;;-0.98;100.00
20156;BME280;10238;49.556;10.956;2023-03-04T00:14:15;98810.50;;;-1.06;100.00
20156;BME280;10238;49.556;10.956;2023-03-04T00:17:03;98806.41;;;-1.11;100.00
20156;BME280;10238;49.556;10.956;2023-03-04T00:19:52;98806.56;;;-1.14;100.00
20156;BME280;10238;49.556;10.956;2023-03-04T00:22:40;98807.44;;;-1.15;100.00
20156;BME280;10238;49.556;10.956;2023-03-04T00:25:29;98803.44;;;-1.22;100.00
20156;BME280;10238;49.556;10.956;2023-03-04T00:28:18;98806.34;;;-1.28;100.00
20156;BME280;10238;49.556;10.956;2023-03-04T00:31:07;98808.19;;;-1.30;100.00
20156;BME280;10238;49.556;10.956;2023-03-04T00:33:54;98808.31;;;-1.33;100.00
20156;BME280;10238;49.556;10.956;2023-03-04T00:36:42;98811.97;;;-1.37;100.00
20156;BME280;10238;49.556;10.956;2023-03-04T00:39:31;98806.88;;;-1.40;100.00
20156;BME280;10238;49.556;10.956;2023-03-04T00:42:20;98807.19;;;-1.46;100.00
20156;BME280;10238;49.556;10.956;2023-03-04T00:45:09;98810.22;;;-1.55;100.00
20156;BME280;10238;49.556;10.956;2023-03-04T00:47:56;98812.97;;;-1.58;100.00
20156;BME280;10238;49.556;10.956;2023-03-04T00:50:44;98808.38;;;-1.53;100.00
20156;BME280;10238;49.556;10.956;2023-03-04T00:53:32;98818.03;;;-1.55;100.00
20156;BME280;10238;49.556;10.956;2023-03-04T00:56:20;98813.78;;;-1.58;100.00
20156;BME280;10238;49.556;10.956;2023-03-04T00:59:10;98810.50;;;-1.61;100.00
20156;BME280;10238;49.556;10.956;2023-03-04T01:01:57;98813.88;;;-1.59;100.00
20156;BME280;10238;49.556;10.956;2023-03-04T01:04:45;98809.56;;;-1.60;100.00
20156;BME280;10238;49.556;10.956;2023-03-04T01:07:33;98813.16;;;-1.63;100.00
20156;BME280;10238;49.556;10.956;2023-03-04T01:10:21;98809.91;;;-1.68;100.00
20156;BME280;10238;49.556;10.956;2023-03-04T01:13:09;98810.91;;;-1.70;100.00
20156;BME280;10238;49.556;10.956;2023-03-04T01:15:58;98806.75;;;-1.74;100.00
20156;BME280;10238;49.556;10.956;2023-03-04T01:18:46;98808.69;;;-1.79;100.00
20156;BME280;10238;49.556;10.956;2023-03-04T01:21:34;98806.34;;;-1.85;100.00
20156;BME280;10238;49.556;10.956;2023-03-04T01:24:22;98802.94;;;-1.86;100.00
20156;BME280;10238;49.556;10.956;2023-03-04T01:27:10;98801.22;;;-1.87;100.00
20156;BME280;10238;49.556;10.956;2023-03-04T01:29:58;98809.03;;;-1.87;100.00
20156;BME280;10238;49.556;10.956;2023-03-04T01:32:47;98806.56;;;-1.90;100.00
20156;BME280;10238;49.556;10.956;2023-03-04T01:35:35;98800.38;;;-1.87;100.00
20156;BME280;10238;49.556;10.956;2023-03-04T01:38:24;98794.53;;;-1.92;100.00
20156;BME280;10238;49.556;10.956;2023-03-04T01:41:13;98799.72;;;-1.92;100.00
20156;BME280;10238;49.556;10.956;2023-03-04T01:44:01;98796.28;;;-1.93;100.00
20156;BME280;10238;49.556;10.956;2023-03-04T01:46:50;98789.31;;;-1.92;100.00
20156;BME280;10238;49.556;10.956;2023-03-04T01:49:41;98791.00;;;-1.91;100.00
20156;BME280;10238;49.556;10.956;2023-03-04T01:52:28;98787.50;;;-1.90;100.00
20156;BME280;10238;49.556;10.956;2023-03-04T01:55:18;98788.38;;;-1.91;100.00
20156;BME280;10238;49.556;10.956;2023-03-04T01:58:09;98781.38;;;-1.89;100.00
20156;BME280;10238;49.556;10.956;2023-03-04T02:00:59;98781.22;;;-1.86;100.00
20156;BME280;10238;49.556;10.956;2023-03-04T02:03:46;98781.38;;;-1.89;100.00
20156;BME280;10238;49.556;10.956;2023-03-04T02:06:37;98777.97;;;-1.91;100.00
20156;BME280;10238;49.556;10.956;2023-03-04T02:09:26;98771.94;;;-1.92;100.00
20156;BME280;10238;49.556;10.956;2023-03-04T02:12:14;98770.38;;;-1.96;100.00
20156;BME280;10238;49.556;10.956;2023-03-04T02:15:05;98772.28;;;-1.99;100.00
20156;BME280;10238;49.556;10.956;2023-03-04T02:17:53;98768.88;;;-2.01;100.00
20156;BME280;10238;49.556;10.956;2023-03-04T02:20:47;98771.63;;;-2.04;100.00
20156;BME280;10238;49.556;10.956;2023-03-04T02:23:43;98768.25;;;-2.06;100.00
20156;BME280;10238;49.556;10.956;2023-03-04T02:26:34;98766.53;;;-2.07;100.00
20156;BME280;10238;49.556;10.956;2023-03-04T02:29:23;98767.47;;;-2.08;100.00
20156;BME280;10238;49.556;10.956;2023-03-04T02:32:12;98758.03;;;-2.11;100.00
20156;BME280;10238;49.556;10.956;2023-03-04T02:35:00;98758.22;;;-2.15;100.00
20156;BME280;10238;49.556;10.956;2023-03-04T02:37:48;98755.63;;;-2.15;100.00
20156;BME280;10238;49.556;10.956;2023-03-04T02:40:37;98758.31;;;-2.17;100.00
20156;BME280;10238;49.556;10.956;2023-03-04T02:43:27;98760.06;;;-2.17;100.00
20156;BME280;10238;49.556;10.956;2023-03-04T02:46:15;98750.63;;;-2.20;100.00
20156;BME280;10238;49.556;10.956;2023-03-04T02:49:03;98755.22;;;-2.27;100.00
20156;BME280;10238;49.556;10.956;2023-03-04T02:51:51;98746.66;;;-2.29;100.00
20156;BME280;10238;49.556;10.956;2023-03-04T02:54:39;98750.31;;;-2.33;100.00
20156;BME280;10238;49.556;10.956;2023-03-04T02:57:27;98750.75;;;-2.23;100.00
20156;BME280;10238;49.556;10.956;2023-03-04T03:00:17;98741.19;;;-2.22;100.00
20156;BME280;10238;49.556;10.956;2023-03-04T03:03:05;98746.41;;;-2.22;100.00
20156;BME280;10238;49.556;10.956;2023-03-04T03:05:53;98746.66;;;-2.29;100.00
20156;BME280;10238;49.556;10.956;2023-03-04T03:08:43;98752.00;;;-2.32;100.00
20156;BME280;10238;49.556;10.956;2023-03-04T03:11:31;98751.28;;;-2.35;100.00
20156;BME280;10238;49.556;10.956;2023-03-04T03:14:19;98753.13;;;-2.37;100.00
20156;BME280;10238;49.556;10.956;2023-03-04T03:17:08;98751.22;;;-2.34;100.00
20156;BME280;10238;49.556;10.956;2023-03-04T03:19:56;98758.97;;;-2.32;100.00
20156;BME280;10238;49.556;10.956;2023-03-04T03:22:45;98757.22;;;-2.32;100.00
20156;BME280;10238;49.556;10.956;2023-03-04T03:25:33;98755.66;;;-2.36;100.00
20156;BME280;10238;49.556;10.956;2023-03-04T03:28:21;98748.75;;;-2.37;100.00
20156;BME280;10238;49.556;10.956;2023-03-04T03:31:09;98753.06;;;-2.36;100.00
20156;BME280;10238;49.556;10.956;2023-03-04T03:33:58;98752.84;;;-2.31;100.00
20156;BME280;10238;49.556;10.956;2023-03-04T03:36:46;98751.53;;;-2.21;100.00
20156;BME280;10238;49.556;10.956;2023-03-04T03:39:34;98748.75;;;-2.16;100.00
20156;BME280;10238;49.556;10.956;2023-03-04T03:42:22;98750.50;;;-2.17;100.00
20156;BME280;10238;49.556;10.956;2023-03-04T03:45:10;98756.56;;;-2.16;100.00
20156;BME280;10238;49.556;10.956;2023-03-04T03:47:58;98755.69;;;-2.17;100.00
20156;BME280;10238;49.556;10.956;2023-03-04T03:50:47;98755.31;;;-2.08;100.00
20156;BME280;10238;49.556;10.956;2023-03-04T03:53:35;98753.44;;;-2.06;100.00
20156;BME280;10238;49.556;10.956;2023-03-04T03:56:23;98763.03;;;-2.06;100.00
20156;BME280;10238;49.556;10.956;2023-03-04T03:59:12;98763.03;;;-2.06;100.00
20156;BME280;10238;49.556;10.956;2023-03-04T04:01:59;98767.19;;;-2.02;100.00
20156;BME280;10238;49.556;10.956;2023-03-04T04:04:48;98766.13;;;-1.98;100.00
20156;BME280;10238;49.556;10.956;2023-03-04T04:07:37;98771.09;;;-1.92;100.00
20156;BME280;10238;49.556;10.956;2023-03-04T04:10:27;98768.13;;;-1.85;100.00
20156;BME280;10238;49.556;10.956;2023-03-04T04:13:15;98772.50;;;-1.85;100.00
20156;BME280;10238;49.556;10.956;2023-03-04T04:16:03;98774.22;;;-1.84;100.00
20156;BME280;10238;49.556;10.956;2023-03-04T04:18:51;98782.84;;;-1.84;100.00
20156;BME280;10238;49.556;10.956;2023-03-04T04:21:39;98780.19;;;-1.82;100.00
20156;BME280;10238;49.556;10.956;2023-03-04T04:24:28;98776.69;;;-1.81;100.00
20156;BME280;10238;49.556;10.956;2023-03-04T04:27:16;98778.22;;;-1.77;100.00
20156;BME280;10238;49.556;10.956;2023-03-04T04:30:05;98775.34;;;-1.71;100.00
20156;BME280;10238;49.556;10.956;2023-03-04T04:32:53;98771.69;;;-1.67;100.00
20156;BME280;10238;49.556;10.956;2023-03-04T04:35:41;98771.53;;;-1.64;100.00
20156;BME280;10238;49.556;10.956;2023-03-04T04:38:30;98774.94;;;-1.62;100.00
20156;BME280;10238;49.556;10.956;2023-03-04T04:41:22;98774.88;;;-1.61;100.00
20156;BME280;10238;49.556;10.956;2023-03-04T04:44:11;98775.47;;;-1.56;100.00
20156;BME280;10238;49.556;10.956;2023-03-04T04:46:59;98773.72;;;-1.55;100.00
20156;BME280;10238;49.556;10.956;2023-03-04T04:49:47;98777.16;;;-1.55;100.00
20156;BME280;10238;49.556;10.956;2023-03-04T04:52:35;98772.72;;;-1.53;100.00
20156;BME280;10238;49.556;10.956;2023-03-04T04:55:23;98777.03;;;-1.52;100.00
20156;BME280;10238;49.556;10.956;2023-03-04T04:58:13;98773.44;;;-1.49;100.00
20156;BME280;10238;49.556;10.956;2023-03-04T05:01:00;98772.53;;;-1.48;100.00
20156;BME280;10238;49.556;10.956;2023-03-04T05:03:49;98779.28;;;-1.44;100.00
20156;BME280;10238;49.556;10.956;2023-03-04T05:06:39;98777.47;;;-1.42;100.00
20156;BME280;10238;49.556;10.956;2023-03-04T05:09:26;98775.59;;;-1.40;100.00
20156;BME280;10238;49.556;10.956;2023-03-04T05:12:14;98781.69;;;-1.40;100.00
20156;BME280;10238;49.556;10.956;2023-03-04T05:15:04;98784.16;;;-1.37;100.00
20156;BME280;10238;49.556;10.956;2023-03-04T05:17:52;98778.84;;;-1.35;100.00
20156;BME280;10238;49.556;10.956;2023-03-04T05:20:40;98780.53;;;-1.34;100.00
20156;BME280;10238;49.556;10.956;2023-03-04T05:23:31;98789.16;;;-1.32;100.00
20156;BME280;10238;49.556;10.956;2023-03-04T05:26:19;98784.72;;;-1.30;100.00
20156;BME280;10238;49.556;10.956;2023-03-04T05:29:07;98788.16;;;-1.30;100.00
20156;BME280;10238;49.556;10.956;2023-03-04T05:31:57;98781.97;;;-1.27;100.00
20156;BME280;10238;49.556;10.956;2023-03-04T05:34:45;98784.59;;;-1.27;100.00
20156;BME280;10238;49.556;10.956;2023-03-04T05:37:33;98783.50;;;-1.23;100.00
20156;BME280;10238;49.556;10.956;2023-03-04T05:40:21;98785.19;;;-1.22;100.00
20156;BME280;10238;49.556;10.956;2023-03-04T05:43:11;98780.84;;;-1.22;100.00
20156;BME280;10238;49.556;10.956;2023-03-04T05:45:59;98780.75;;;-1.20;100.00
20156;BME280;10238;49.556;10.956;2023-03-04T05:48:49;98783.38;;;-1.20;100.00
20156;BME280;10238;49.556;10.956;2023-03-04T05:51:37;98778.91;;;-1.18;100.00
20156;BME280;10238;49.556;10.956;2023-03-04T05:54:25;98781.44;;;-1.17;100.00
20156;BME280;10238;49.556;10.956;2023-03-04T05:57:13;98788.44;;;-1.17;100.00
20156;BME280;10238;49.556;10.956;2023-03-04T06:00:02;98788.28;;;-1.14;100.00
20156;BME280;10238;49.556;10.956;2023-03-04T06:02:53;98786.44;;;-1.12;100.00
20156;BME280;10238;49.556;10.956;2023-03-04T06:05:42;98797.66;;;-1.10;100.00
20156;BME280;10238;49.556;10.956;2023-03-04T06:08:30;98789.06;;;-1.12;100.00
20156;BME280;10238;49.556;10.956;2023-03-04T06:11:18;98797.66;;;-1.10;100.00
20156;BME280;10238;49.556;10.956;2023-03-04T06:14:06;98793.22;;;-1.08;100.00
20156;BME280;10238;49.556;10.956;2023-03-04T06:16:54;98791.38;;;-1.06;100.00
20156;BME280;10238;49.556;10.956;2023-03-04T06:19:42;98791.31;;;-1.05;100.00
20156;BME280;10238;49.556;10.956;2023-03-04T06:22:32;98795.44;;;-1.01;100.00
20156;BME280;10238;49.556;10.956;2023-03-04T06:25:21;98793.75;;;-1.02;100.00
20156;BME280;10238;49.556;10.956;2023-03-04T06:28:09;98796.22;;;-0.99;100.00
20156;BME280;10238;49.556;10.956;2023-03-04T06:30:57;98804.06;;;-0.99;100.00
20156;BME280;10238;49.556;10.956;2023-03-04T06:33:45;98803.06;;;-0.96;100.00
20156;BME280;10238;49.556;10.956;2023-03-04T06:36:33;98808.13;;;-0.93;100.00
20156;BME280;10238;49.556;10.956;2023-03-04T06:39:23;98810.66;;;-0.92;100.00
20156;BME280;10238;49.556;10.956;2023-03-04T06:42:11;98814.06;;;-0.90;100.00
20156;BME280;10238;49.556;10.956;2023-03-04T06:44:59;98814.00;;;-0.88;100.00
20156;BME280;10238;49.556;10.956;2023-03-04T06:47:47;98812.13;;;-0.86;100.00
20156;BME280;10238;49.556;10.956;2023-03-04T06:50:36;98820.66;;;-0.83;100.00
20156;BME280;10238;49.556;10.956;2023-03-04T06:53:24;98819.66;;;-0.80;100.00
20156;BME280;10238;49.556;10.956;2023-03-04T06:56:14;98823.91;;;-0.78;100.00
20156;BME280;10238;49.556;10.956;2023-03-04T06:59:03;98828.13;;;-0.75;100.00
20156;BME280;10238;49.556;10.956;2023-03-04T07:01:51;98831.53;;;-0.73;100.00
20156;BME280;10238;49.556;10.956;2023-03-04T07:04:39;98829.59;;;-0.70;100.00
20156;BME280;10238;49.556;10.956;2023-03-04T07:07:32;98837.22;;;-0.65;100.00
20156;BME280;10238;49.556;10.956;2023-03-04T07:10:20;98829.22;;;-0.62;100.00
20156;BME280;10238;49.556;10.956;2023-03-04T07:13:09;98832.63;;;-0.60;100.00
20156;BME280;10238;49.556;10.956;2023-03-04T07:15:58;98835.97;;;-0.58;100.00
20156;BME280;10238;49.556;10.956;2023-03-04T07:18:46;98839.38;;;-0.56;100.00
20156;BME280;10238;49.556;10.956;2023-03-04T07:21:34;98841.84;;;-0.53;100.00
20156;BME280;10238;49.556;10.956;2023-03-04T07:24:23;98839.91;;;-0.50;100.00
20156;BME280;10238;49.556;10.956;2023-03-04T07:27:11;98848.44;;;-0.46;100.00
20156;BME280;10238;49.556;10.956;2023-03-04T07:30:01;98850.91;;;-0.43;100.00
20156;BME280;10238;49.556;10.956;2023-03-04T07:32:49;98842.00;;;-0.39;100.00
20156;BME280;10238;49.556;10.956;2023-03-04T07:35:37;98841.84;;;-0.36;100.00
20156;BME280;10238;49.556;10.956;2023-03-04T07:38:25;98844.31;;;-0.33;100.00
20156;BME280;10238;49.556;10.956;2023-03-04T07:41:13;98838.00;;;-0.29;100.00
20156;BME280;10238;49.556;10.956;2023-03-04T07:44:02;98845.69;;;-0.26;100.00
20156;BME280;10238;49.556;10.956;2023-03-04T07:46:52;98855.09;;;-0.22;100.00
20156;BME280;10238;49.556;10.956;2023-03-04T07:49:40;98849.72;;;-0.19;100.00
20156;BME280;10238;49.556;10.956;2023-03-04T07:52:27;98847.84;;;-0.17;100.00
20156;BME280;10238;49.556;10.956;2023-03-04T07:55:16;98847.69;;;-0.14;100.00
20156;BME280;10238;49.556;10.956;2023-03-04T07:58:04;98844.78;;;-0.08;100.00
20156;BME280;10238;49.556;10.956;2023-03-04T08:00:52;98850.63;;;-0.03;100.00
20156;BME280;10238;49.556;10.956;2023-03-04T08:03:41;98841.72;;;0.01;100.00
20156;BME280;10238;49.556;10.956;2023-03-04T08:06:31;98851.16;;;0.03;100.00
20156;BME280;10238;49.556;10.956;2023-03-04T08:09:19;98849.16;;;0.09;100.00
20156;BME280;10238;49.556;10.956;2023-03-04T08:12:07;98846.31;;;0.13;100.00
20156;BME280;10238;49.556;10.956;2023-03-04T08:14:55;98844.28;;;0.18;100.00
20156;BME280;10238;49.556;10.956;2023-03-04T08:17:44;98838.75;;;0.24;100.00
20156;BME280;10238;49.556;10.956;2023-03-04T08:20:33;98839.53;;;0.26;100.00
20156;BME280;10238;49.556;10.956;2023-03-04T08:23:38;98835.81;;;0.30;100.00
20156;BME280;10238;49.556;10.956;2023-03-04T08:26:29;98840.56;;;0.39;100.00
20156;BME280;10238;49.556;10.956;2023-03-04T08:29:20;98838.69;;;0.41;100.00
20156;BME280;10238;49.556;10.956;2023-03-04T08:32:09;98845.41;;;0.47;100.00
20156;BME280;10238;49.556;10.956;2023-03-04T08:34:57;98839.00;;;0.52;100.00
20156;BME280;10238;49.556;10.956;2023-03-04T08:37:49;98833.53;;;0.57;100.00
20156;BME280;10238;49.556;10.956;2023-03-04T08:40:37;98834.88;;;0.64;100.00
20156;BME280;10238;49.556;10.956;2023-03-04T08:43:25;98830.28;;;0.69;100.00
20156;BME280;10238;49.556;10.956;2023-03-04T08:46:14;98835.13;;;0.75;100.00
20156;BME280;10238;49.556;10.956;2023-03-04T08:49:02;98836.69;;;0.79;100.00
20156;BME280;10238;49.556;10.956;2023-03-04T08:51:49;98835.50;;;0.84;100.00
20156;BME280;10238;49.556;10.956;2023-03-04T08:54:39;98842.09;;;0.91;100.00
20156;BME280;10238;49.556;10.956;2023-03-04T08:57:26;98845.47;;;0.93;100.00
20156;BME280;10238;49.556;10.956;2023-03-04T09:00:15;98841.69;;;0.99;100.00
20156;BME280;10238;49.556;10.956;2023-03-04T09:03:03;98844.97;;;1.02;100.00
20156;BME280;10238;49.556;10.956;2023-03-04T09:05:51;98847.22;;;1.08;100.00
20156;BME280;10238;49.556;10.956;2023-03-04T09:08:40;98841.75;;;1.13;100.00
20156;BME280;10238;49.556;10.956;2023-03-04T09:11:29;98849.34;;;1.17;100.00
20156;BME280;10238;49.556;10.956;2023-03-04T09:14:17;98846.47;;;1.22;100.00
20156;BME280;10238;49.556;10.956;2023-03-04T09:17:05;98841.00;;;1.26;100.00
20156;BME280;10238;49.556;10.956;2023-03-04T09:19:53;98848.50;;;1.32;100.00
20156;BME280;10238;49.556;10.956;2023-03-04T09:22:42;98850.78;;;1.38;100.00
20156;BME280;10238;49.556;10.956;2023-03-04T09:25:30;98847.81;;;1.44;100.00
20156;BME280;10238;49.556;10.956;2023-03-04T09:28:20;98845.78;;;1.49;100.00
20156;BME280;10238;49.556;10.956;2023-03-04T09:31:11;98856.00;;;1.54;100.00
20156;BME280;10238;49.556;10.956;2023-03-04T09:34:00;98845.25;;;1.58;100.00
20156;BME280;10238;49.556;10.956;2023-03-04T09:36:48;98851.19;;;1.62;100.00
20156;BME280;10238;49.556;10.956;2023-03-04T09:39:36;98853.38;;;1.69;100.00
20156;BME280;10238;49.556;10.956;2023-03-04T09:42:27;98851.31;;;1.74;100.00
20156;BME280;10238;49.556;10.956;2023-03-04T09:45:21;98849.28;;;1.79;100.00
20156;BME280;10238;49.556;10.956;2023-03-04T09:48:11;98855.06;;;1.84;100.00
20156;BME280;10238;49.556;10.956;2023-03-04T09:51:19;98856.44;;;1.91;100.00
20156;BME280;10238;49.556;10.956;2023-03-04T09:54:10;98853.63;;;1.94;100.00
20156;BME280;10238;49.556;10.956;2023-03-04T09:57:14;98846.41;;;1.98;100.00
20156;BME280;10238;49.556;10.956;2023-03-04T10:00:10;98842.41;;;2.06;100.00
20156;BME280;10238;49.556;10.956;2023-03-04T10:03:14;98848.97;;;2.13;100.00
20156;BME280;10238;49.556;10.956;2023-03-04T10:06:08;98839.06;;;2.18;100.00
20156;BME280;10238;49.556;10.956;2023-03-04T10:09:00;98833.47;;;2.24;100.00
20156;BME280;10238;49.556;10.956;2023-03-04T10:12:00;98832.91;;;2.34;100.00
20156;BME280;10238;49.556;10.956;2023-03-04T10:14:53;98830.84;;;2.39;100.00
20156;BME280;10238;49.556;10.956;2023-03-04T10:17:50;98832.09;;;2.47;100.00
20156;BME280;10238;49.556;10.956;2023-03-04T10:20:51;98827.03;;;2.58;100.00
20156;BME280;10238;49.556;10.956;2023-03-04T10:23:39;98822.13;;;2.66;100.00
20156;BME280;10238;49.556;10.956;2023-03-04T10:26:33;98823.56;;;2.72;100.00
20156;BME280;10238;49.556;10.956;2023-03-04T10:29:22;98819.41;;;2.82;100.00
20156;BME280;10238;49.556;10.956;2023-03-04T10:32:21;98822.28;;;2.91;100.00
20156;BME280;10238;49.556;10.956;2023-03-04T10:35:11;98814.78;;;2.99;100.00
20156;BME280;10238;49.556;10.956;2023-03-04T10:38:03;98816.28;;;3.03;100.00
20156;BME280;10238;49.556;10.956;2023-03-04T10:40:51;98818.63;;;3.08;100.00
20156;BME280;10238;49.556;10.956;2023-03-04T10:43:40;98811.75;;;3.19;100.00
20156;BME280;10238;49.556;10.956;2023-03-04T10:46:31;98808.63;;;3.27;100.00
20156;BME280;10238;49.556;10.956;2023-03-04T10:49:19;98805.25;;;3.25;100.00
20156;BME280;10238;49.556;10.956;2023-03-04T10:52:20;98805.31;;;3.37;100.00
20156;BME280;10238;49.556;10.956;2023-03-04T10:55:16;98805.75;;;3.44;100.00
20156;BME280;10238;49.556;10.956;2023-03-04T10:58:11;98803.66;;;3.49;100.00
20156;BME280;10238;49.556;10.956;2023-03-04T11:01:02;98801.78;;;3.51;100.00
20156;BME280;10238;49.556;10.956;2023-03-04T11:03:51;98805.34;;;3.50;100.00
20156;BME280;10238;49.556;10.956;2023-03-04T11:06:40;98815.47;;;3.56;100.00
20156;BME280;10238;49.556;10.956;2023-03-04T11:09:30;98808.34;;;3.58;100.00
20156;BME280;10238;49.556;10.956;2023-03-04T11:12:31;98808.03;;;3.62;100.00
20156;BME280;10238;49.556;10.956;2023-03-04T11:15:22;98807.28;;;3.73;100.00
20156;BME280;10238;49.556;10.956;2023-03-04T11:18:13;98801.53;;;3.80;100.00
20156;BME280;10238;49.556;10.956;2023-03-04T11:21:05;98802.09;;;3.85;100.00
20156;BME280;10238;49.556;10.956;2023-03-04T11:23:58;98801.03;;;3.88;100.00
20156;BME280;10238;49.556;10.956;2023-03-04T11:26:49;98805.22;;;3.90;100.00
20156;BME280;10238;49.556;10.956;2023-03-04T11:29:44;98791.38;;;3.88;100.00
20156;BME280;10238;49.556;10.956;2023-03-04T11:32:39;98795.81;;;4.00;100.00
20156;BME280;10238;49.556;10.956;2023-03-04T11:35:33;98788.84;;;3.99;100.00
20156;BME280;10238;49.556;10.956;2023-03-04T11:38:31;98786.53;;;3.95;100.00
20156;BME280;10238;49.556;10.956;2023-03-04T11:41:23;98778.97;;;4.03;100.00
20156;BME280;10238;49.556;10.956;2023-03-04T11:44:15;98784.44;;;4.00;100.00
20156;BME280;10238;49.556;10.956;2023-03-04T11:47:19;98778.97;;;4.03;100.00
20156;BME280;10238;49.556;10.956;2023-03-04T11:56:31;98767.06;;;4.10;100.00
20156;BME280;10238;49.556;10.956;2023-03-04T11:59:43;98765.41;;;4.09;100.00
20156;BME280;10238;49.556;10.956;2023-03-04T12:02:42;98760.75;;;4.12;100.00
20156;BME280;10238;49.556;10.956;2023-03-04T12:05:41;98758.34;;;4.09;100.00
20156;BME280;10238;49.556;10.956;2023-03-04T12:08:59;98746.03;;;4.10;100.00
20156;BME280;10238;49.556;10.956;2023-03-04T12:11:57;98739.19;;;4.20;100.00
20156;BME280;10238;49.556;10.956;2023-03-04T12:14:51;98740.44;;;4.27;100.00
20156;BME280;10238;49.556;10.956;2023-03-04T12:17:58;98741.94;;;4.31;100.00
20156;BME280;10238;49.556;10.956;2023-03-04T12:21:16;98731.19;;;4.34;100.00
20156;BME280;10238;49.556;10.956;2023-03-04T12:24:24;98727.78;;;4.44;100.00
20156;BME280;10238;49.556;10.956;2023-03-04T12:27:20;98730.53;;;4.43;100.00
20156;BME280;10238;49.556;10.956;2023-03-04T12:30:32;98724.44;;;4.42;100.00
20156;BME280;10238;49.556;10.956;2023-03-04T12:33:29;98721.91;;;4.41;100.00
20156;BME280;10238;49.556;10.956;2023-03-04T12:36:25;98724.03;;;4.48;100.00
20156;BME280;10238;49.556;10.956;2023-03-04T12:39:25;98724.63;;;4.52;100.00
20156;BME280;10238;49.556;10.956;2023-03-04T12:42:22;98712.53;;;4.49;100.00
20156;BME280;10238;49.556;10.956;2023-03-04T12:45:19;98714.31;;;4.49;100.00
20156;BME280;10238;49.556;10.956;2023-03-04T12:48:21;98709.91;;;4.49;100.00
20156;BME280;10238;49.556;10.956;2023-03-04T12:51:25;98714.53;;;4.46;100.00
20156;BME280;10238;49.556;10.956;2023-03-04T12:54:24;98709.47;;;4.56;100.00
20156;BME280;10238;49.556;10.956;2023-03-04T12:57:17;98715.59;;;4.56;100.00
20156;BME280;10238;49.556;10.956;2023-03-04T13:00:21;98716.09;;;4.61;100.00
20156;BME280;10238;49.556;10.956;2023-03-04T13:03:16;98706.63;;;4.59;100.00
20156;BME280;10238;49.556;10.956;2023-03-04T13:06:14;98704.84;;;4.59;100.00
20156;BME280;10238;49.556;10.956;2023-03-04T13:09:12;98701.13;;;4.62;100.00
20156;BME280;10238;49.556;10.956;2023-03-04T13:12:14;98700.81;;;4.66;100.00
20156;BME280;10238;49.556;10.956;2023-03-04T13:15:34;98697.44;;;4.64;100.00
20156;BME280;10238;49.556;10.956;2023-03-04T13:18:31;98698.28;;;4.65;100.00
20156;BME280;10238;49.556;10.956;2023-03-04T13:21:23;98702.25;;;4.70;100.00
20156;BME280;10238;49.556;10.956;2023-03-04T13:24:47;98691.41;;;4.75;100.00
20156;BME280;10238;49.556;10.956;2023-03-04T13:27:46;98686.03;;;4.76;100.00
20156;BME280;10238;49.556;10.956;2023-03-04T13:34:01;98689.16;;;4.81;100.00
20156;BME280;10238;49.556;10.956;2023-03-04T13:36:55;98680.88;;;4.75;100.00
20156;BME280;10238;49.556;10.956;2023-03-04T13:39:43;98680.22;;;4.84;100.00
20156;BME280;10238;49.556;10.956;2023-03-04T13:42:40;98679.09;;;4.75;100.00
20156;BME280;10238;49.556;10.956;2023-03-04T13:45:32;98671.25;;;4.86;100.00
20156;BME280;10238;49.556;10.956;2023-03-04T13:48:28;98671.47;;;4.83;100.00
20156;BME280;10238;49.556;10.956;2023-03-04T13:51:22;98676.50;;;4.86;100.00
20156;BME280;10238;49.556;10.956;2023-03-04T13:54:28;98667.53;;;4.89;100.00
20156;BME280;10238;49.556;10.956;2023-03-04T13:57:18;98665.97;;;4.86;100.00
20156;BME280;10238;49.556;10.956;2023-03-04T14:00:12;98662.81;;;4.81;100.00
20156;BME280;10238;49.556;10.956;2023-03-04T14:03:16;98657.34;;;4.84;100.00
20156;BME280;10238;49.556;10.956;2023-03-04T14:06:17;98663.66;;;4.82;100.00
20156;BME280;10238;49.556;10.956;2023-03-04T14:09:12;98650.41;;;4.83;100.00
20156;BME280;10238;49.556;10.956;2023-03-04T14:12:01;98650.19;;;4.86;100.00
20156;BME280;10238;49.556;10.956;2023-03-04T14:14:53;98660.72;;;4.86;100.00
20156;BME280;10238;49.556;10.956;2023-03-04T14:17:48;98648.72;;;4.82;100.00
20156;BME280;10238;49.556;10.956;2023-03-04T14:20:39;98638.91;;;4.84;100.00
20156;BME280;10238;49.556;10.956;2023-03-04T14:23:36;98645.13;;;4.83;100.00
20156;BME280;10238;49.556;10.956;2023-03-04T14:26:24;98632.59;;;4.87;100.00
20156;BME280;10238;49.556;10.956;2023-03-04T14:29:26;98634.38;;;4.86;100.00
20156;BME280;10238;49.556;10.956;2023-03-04T14:32:16;98632.28;;;4.79;100.00
20156;BME280;10238;49.556;10.956;2023-03-04T14:35:14;98626.47;;;4.86;100.00
20156;BME280;10238;49.556;10.956;2023-03-04T14:38:18;98623.63;;;4.89;100.00
20156;BME280;10238;49.556;10.956;2023-03-04T14:41:16;98624.34;;;4.91;100.00
20156;BME280;10238;49.556;10.956;2023-03-04T14:44:10;98614.97;;;4.87;100.00
20156;BME280;10238;49.556;10.956;2023-03-04T14:47:17;98609.00;;;4.85;100.00
20156;BME280;10238;49.556;10.956;2023-03-04T14:50:13;98615.19;;;4.84;100.00
20156;BME280;10238;49.556;10.956;2023-03-04T14:53:13;98613.88;;;4.79;100.00
20156;BME280;10238;49.556;10.956;2023-03-04T14:56:04;98608.25;;;4.83;100.00
20156;BME280;10238;49.556;10.956;2023-03-04T14:58:56;98607.94;;;4.64;100.00